createdAt,value
2018-06-11T00:00:46.928Z,6.80
2018-06-11T00:03:19.022Z,6.17
2018-06-11T00:05:50.532Z,5.42
2018-06-11T00:08:21.757Z,5.97
2018-06-11T00:10:53.198Z,6.35
2018-06-11T00:13:24.613Z,6.37
2018-06-11T00:15:55.955Z,5.50
2018-06-11T00:18:27.139Z,6.67
2018-06-11T00:20:58.420Z,6.35
2018-06-11T00:23:29.661Z,5.85
2018-06-11T00:26:01.106Z,6.45
2018-06-11T00:28:32.847Z,6.95
2018-06-11T00:31:04.093Z,6.58
2018-06-11T00:33:35.422Z,6.17
2018-06-11T00:36:06.732Z,5.78
2018-06-11T00:38:38.111Z,6.17
2018-06-11T00:41:09.842Z,6.15
2018-06-11T00:43:41.222Z,6.75
2018-06-11T00:46:12.887Z,6.62
2018-06-11T00:48:44.369Z,7.00
2018-06-11T00:51:15.992Z,6.17
2018-06-11T00:53:47.442Z,6.78
2018-06-11T00:56:18.799Z,6.97
2018-06-11T00:58:50.206Z,6.47
2018-06-11T01:01:21.710Z,6.53
2018-06-11T01:03:53.164Z,7.97
2018-06-11T01:06:24.429Z,6.53
2018-06-11T01:08:55.645Z,6.40
2018-06-11T01:11:27.085Z,6.78
2018-06-11T01:13:58.430Z,7.03
2018-06-11T01:16:29.903Z,7.42
2018-06-11T01:19:01.393Z,7.47
2018-06-11T01:21:33.602Z,8.33
2018-06-11T01:24:05.109Z,8.48
2018-06-11T01:26:36.453Z,8.65
2018-06-11T01:29:07.847Z,7.60
2018-06-11T01:31:39.269Z,8.20
2018-06-11T01:34:10.865Z,8.30
2018-06-11T01:36:42.155Z,7.85
2018-06-11T01:39:14.048Z,7.75
2018-06-11T01:41:45.375Z,7.83
2018-06-11T01:44:17.344Z,9.28
2018-06-11T01:46:48.769Z,8.58
2018-06-11T01:49:20.149Z,12.67
2018-06-11T01:51:51.684Z,11.53
2018-06-11T01:54:23.177Z,12.30
2018-06-11T01:56:54.637Z,9.95
2018-06-11T01:59:25.955Z,9.17
2018-06-11T02:01:57.574Z,10.13
2018-06-11T02:04:29.252Z,8.83
2018-06-11T02:07:00.776Z,9.15
2018-06-11T02:09:32.194Z,9.10
2018-06-11T02:12:03.856Z,9.05
2018-06-11T02:14:35.472Z,9.88
2018-06-11T02:17:07.072Z,10.90
2018-06-11T02:19:38.857Z,9.85
2018-06-11T02:22:10.088Z,10.58
2018-06-11T02:24:42.259Z,10.13
2018-06-11T02:27:13.580Z,10.63
2018-06-11T02:29:45.647Z,11.38
2018-06-11T02:32:16.982Z,11.63
2018-06-11T02:34:48.350Z,12.58
2018-06-11T02:37:20.016Z,11.00
2018-06-11T02:39:51.347Z,12.37
2018-06-11T02:42:22.733Z,11.95
2018-06-11T02:44:54.130Z,11.53
2018-06-11T02:47:26.307Z,10.65
2018-06-11T02:49:58.078Z,11.48
2018-06-11T02:52:30.428Z,11.15
2018-06-11T02:55:01.972Z,9.18
2018-06-11T02:57:33.274Z,9.60
2018-06-11T03:00:04.571Z,11.73
2018-06-11T03:02:36.520Z,7.90
2018-06-11T03:05:08.349Z,8.77
2018-06-11T03:07:39.802Z,8.13
2018-06-11T03:10:11.000Z,8.20
2018-06-11T03:12:42.244Z,7.55
2018-06-11T03:15:14.288Z,9.08
2018-06-11T03:17:45.690Z,10.95
2018-06-11T03:20:17.110Z,11.33
2018-06-11T03:22:48.937Z,11.57
2018-06-11T03:25:20.492Z,49.75
2018-06-11T03:27:51.898Z,23.02
2018-06-11T03:30:24.251Z,15.25
2018-06-11T03:32:55.499Z,15.43
2018-06-11T03:35:26.648Z,15.10
2018-06-11T03:37:58.008Z,13.75
2018-06-11T03:40:29.699Z,12.63
2018-06-11T03:43:01.308Z,12.88
2018-06-11T03:45:32.215Z,12.55
2018-06-11T03:48:04.243Z,12.80
2018-06-11T03:50:35.758Z,10.90
2018-06-11T03:53:06.901Z,11.48
2018-06-11T03:55:38.321Z,10.80
2018-06-11T03:58:09.954Z,10.00
2018-06-11T04:00:41.442Z,8.80
2018-06-11T04:03:12.908Z,9.60
2018-06-11T04:05:44.726Z,8.73
2018-06-11T04:08:16.189Z,9.05
2018-06-11T04:10:47.776Z,8.18
2018-06-11T04:13:19.871Z,7.45
2018-06-11T04:15:51.271Z,6.97
2018-06-11T04:18:22.644Z,7.12
2018-06-11T04:20:53.792Z,7.83
2018-06-11T04:23:25.251Z,7.28
2018-06-11T04:25:56.569Z,7.12
2018-06-11T04:28:28.236Z,7.92
2018-06-11T04:30:59.976Z,7.90
2018-06-11T04:33:31.357Z,6.85
2018-06-11T04:36:02.623Z,9.50
2018-06-11T04:38:34.117Z,7.62
2018-06-11T04:41:05.372Z,7.30
2018-06-11T04:43:36.717Z,7.65
2018-06-11T04:46:08.216Z,6.40
2018-06-11T04:48:40.055Z,6.53
2018-06-11T04:51:11.605Z,6.58
2018-06-11T04:53:43.488Z,6.17
2018-06-11T04:56:14.905Z,6.45
2018-06-11T04:58:46.236Z,6.75
2018-06-11T05:01:17.395Z,5.45
2018-06-11T05:03:48.720Z,6.22
2018-06-11T05:06:20.435Z,5.37
2018-06-11T05:08:51.989Z,5.78
2018-06-11T05:11:23.855Z,7.58
2018-06-11T05:13:55.374Z,7.17
2018-06-11T05:16:26.953Z,7.58
2018-06-11T05:18:58.654Z,7.65
2018-06-11T05:21:30.366Z,5.80
2018-06-11T05:24:02.408Z,6.45
2018-06-11T05:26:33.353Z,6.30
2018-06-11T05:29:04.610Z,5.83
2018-06-11T05:31:36.252Z,7.35
2018-06-11T05:34:07.683Z,7.17
2018-06-11T05:36:39.107Z,7.45
2018-06-11T05:39:10.935Z,14.05
2018-06-11T05:41:42.347Z,7.65
2018-06-11T05:44:13.480Z,7.45
2018-06-11T05:46:44.664Z,7.97
2018-06-11T05:49:15.915Z,7.55
2018-06-11T05:51:47.229Z,7.20
2018-06-11T05:54:19.058Z,7.70
2018-06-11T05:56:50.411Z,6.95
2018-06-11T05:59:21.720Z,7.47
2018-06-11T06:01:53.313Z,7.35
2018-06-11T06:04:24.579Z,6.80
2018-06-11T06:06:55.949Z,6.62
2018-06-11T06:09:27.486Z,6.37
2018-06-11T06:11:59.275Z,6.75
2018-06-11T06:14:30.767Z,6.67
2018-06-11T06:17:03.067Z,6.00
2018-06-11T06:19:34.608Z,6.08
2018-06-11T06:22:06.662Z,6.20
2018-06-11T06:24:38.012Z,6.40
2018-06-11T06:27:09.666Z,6.00
2018-06-11T06:29:41.486Z,6.45
2018-06-11T06:32:12.716Z,6.47
2018-06-11T06:34:44.172Z,6.00
2018-06-11T06:37:15.038Z,6.15
2018-06-11T06:39:46.347Z,5.83
2018-06-11T06:42:17.647Z,5.75
2018-06-11T06:44:49.052Z,6.10
2018-06-11T06:47:21.028Z,6.03
2018-06-11T06:49:52.442Z,6.33
2018-06-11T06:52:23.859Z,5.72
2018-06-11T06:54:55.269Z,6.10
2018-06-11T06:57:26.654Z,6.00
2018-06-11T06:59:58.209Z,6.00
2018-06-11T07:02:30.364Z,5.60
2018-06-11T07:05:01.726Z,6.35
2018-06-11T07:07:33.073Z,5.75
2018-06-11T07:10:04.664Z,5.95
2018-06-11T07:12:35.991Z,7.20
2018-06-11T07:15:07.123Z,6.12
2018-06-11T07:17:38.210Z,6.58
2018-06-11T07:20:10.023Z,6.47
2018-06-11T07:22:41.580Z,6.40
2018-06-11T07:25:12.825Z,6.20
2018-06-11T07:27:43.909Z,6.45
2018-06-11T07:30:16.050Z,6.50
2018-06-11T07:32:47.420Z,6.28
2018-06-11T07:35:18.657Z,6.10
2018-06-11T07:37:50.438Z,6.17
2018-06-11T07:40:21.616Z,5.72
2018-06-11T07:42:53.165Z,6.08
2018-06-11T07:45:24.479Z,6.53
2018-06-11T07:47:55.711Z,6.25
2018-06-11T07:50:27.260Z,5.65
2018-06-11T07:52:58.860Z,6.33
2018-06-11T07:55:30.363Z,6.45
2018-06-11T07:58:01.566Z,5.65
2018-06-11T08:00:33.061Z,6.55
2018-06-11T08:03:04.852Z,6.37
2018-06-11T08:05:36.329Z,6.50
2018-06-11T08:08:07.678Z,5.75
2018-06-11T08:10:38.882Z,6.10
2018-06-11T08:13:10.060Z,6.33
2018-06-11T08:15:41.593Z,6.55
2018-06-11T08:18:13.044Z,6.22
2018-06-11T08:20:44.509Z,6.05
2018-06-11T08:23:16.296Z,6.33
2018-06-11T08:25:47.662Z,5.40
2018-06-11T08:28:19.070Z,6.37
2018-06-11T08:30:50.512Z,5.20
2018-06-11T08:33:22.047Z,5.92
2018-06-11T08:35:53.366Z,5.85
2018-06-11T08:38:25.292Z,5.80
2018-06-11T08:40:56.483Z,5.90
2018-06-11T08:43:27.763Z,5.58
2018-06-11T08:45:59.309Z,5.75
2018-06-11T08:48:30.699Z,6.00
2018-06-11T08:51:02.021Z,6.03
2018-06-11T08:53:33.665Z,5.47
2018-06-11T08:56:05.446Z,5.55
2018-06-11T08:58:36.793Z,5.60
2018-06-11T09:01:07.965Z,5.53
2018-06-11T09:03:39.773Z,5.50
2018-06-11T09:06:10.948Z,5.90
2018-06-11T09:08:42.344Z,5.75
2018-06-11T09:11:13.665Z,6.55
2018-06-11T09:13:44.993Z,6.15
2018-06-11T09:16:16.849Z,5.70
2018-06-11T09:18:48.119Z,6.25
2018-06-11T09:21:19.252Z,6.37
2018-06-11T09:23:50.527Z,6.12
2018-06-11T09:26:25.884Z,5.90
2018-06-11T09:28:57.100Z,5.95
2018-06-11T09:31:28.508Z,5.92
2018-06-11T09:33:59.893Z,5.78
2018-06-11T09:36:31.252Z,6.03
2018-06-11T09:39:03.333Z,5.70
2018-06-11T09:41:34.833Z,5.78
2018-06-11T09:44:06.113Z,6.03
2018-06-11T09:46:37.487Z,5.20
2018-06-11T09:49:09.048Z,6.50
2018-06-11T09:51:40.301Z,5.90
2018-06-11T09:54:11.810Z,6.33
2018-06-11T09:56:44.024Z,6.00
2018-06-11T09:59:15.697Z,5.58
2018-06-11T10:01:46.951Z,6.33
2018-06-11T10:04:18.017Z,5.30
2018-06-11T10:06:49.945Z,6.10
2018-06-11T10:09:21.523Z,5.67
2018-06-11T10:11:53.472Z,5.92
2018-06-11T10:14:24.615Z,5.50
2018-06-11T10:16:56.037Z,6.25
2018-06-11T10:19:27.589Z,6.42
2018-06-11T10:21:59.174Z,6.15
2018-06-11T10:24:31.037Z,6.22
2018-06-11T10:27:02.379Z,6.05
2018-06-11T10:29:34.456Z,5.87
2018-06-11T10:32:06.705Z,5.90
2018-06-11T10:34:37.949Z,5.97
2018-06-11T10:37:09.302Z,8.00
2018-06-11T10:39:40.479Z,6.47
2018-06-11T10:42:12.247Z,5.90
2018-06-11T10:44:43.636Z,5.95
2018-06-11T10:47:15.272Z,6.03
2018-06-11T10:49:46.845Z,6.17
2018-06-11T10:52:18.044Z,6.12
2018-06-11T10:54:49.458Z,5.58
2018-06-11T10:57:21.259Z,6.10
2018-06-11T10:59:52.605Z,6.20
2018-06-11T11:02:25.822Z,5.83
2018-06-11T11:04:57.392Z,6.08
2018-06-11T11:07:28.694Z,6.30
2018-06-11T11:10:00.162Z,6.35
2018-06-11T11:12:31.290Z,5.75
2018-06-11T11:15:02.670Z,6.37
2018-06-11T11:17:35.355Z,6.55
2018-06-11T11:20:06.889Z,6.20
2018-06-11T11:22:38.119Z,5.95
2018-06-11T11:25:09.468Z,5.78
2018-06-11T11:27:40.870Z,6.05
2018-06-11T11:30:12.234Z,6.72
2018-06-11T11:32:43.582Z,6.50
2018-06-11T11:35:14.727Z,6.12
2018-06-11T11:37:46.264Z,6.17
2018-06-11T11:40:17.361Z,5.65
2018-06-11T11:42:48.745Z,6.08
2018-06-11T11:45:20.275Z,5.90
2018-06-11T11:47:51.388Z,5.75
2018-06-11T11:50:22.589Z,5.50
2018-06-11T11:52:53.879Z,5.85
2018-06-11T11:55:25.073Z,6.03
2018-06-11T11:57:56.228Z,5.78
2018-06-11T12:00:28.229Z,6.35
2018-06-11T12:02:59.585Z,5.80
2018-06-11T12:05:31.608Z,6.50
2018-06-11T12:08:02.994Z,6.47
2018-06-11T12:10:34.207Z,6.17
2018-06-11T12:13:05.577Z,6.20
2018-06-11T12:15:36.806Z,6.53
2018-06-11T12:18:08.288Z,5.83
2018-06-11T12:20:39.762Z,6.35
2018-06-11T12:23:10.788Z,6.85
2018-06-11T12:25:42.193Z,6.80
2018-06-11T12:28:13.838Z,6.45
2018-06-11T12:30:45.380Z,6.33
2018-06-11T12:33:16.772Z,6.28
2018-06-11T12:35:48.732Z,6.55
2018-06-11T12:38:20.359Z,6.20
2018-06-11T12:40:52.424Z,6.08
2018-06-11T12:43:23.581Z,5.90
2018-06-11T12:45:54.523Z,6.15
2018-06-11T12:48:25.871Z,6.00
2018-06-11T12:50:58.133Z,6.47
2018-06-11T12:53:29.461Z,6.47
2018-06-11T12:56:00.999Z,6.22
2018-06-11T12:58:32.303Z,6.22
2018-06-11T13:01:03.895Z,6.28
2018-06-11T13:03:35.445Z,6.85
2018-06-11T13:06:06.738Z,6.55
2018-06-11T13:08:38.008Z,6.62
2018-06-11T13:11:09.715Z,7.80
2018-06-11T13:13:41.286Z,6.80
2018-06-11T13:16:12.691Z,6.42
2018-06-11T13:18:44.292Z,7.00
2018-06-11T13:21:15.717Z,8.00
2018-06-11T13:23:47.095Z,6.92
2018-06-11T13:26:18.119Z,6.17
2018-06-11T13:28:49.874Z,6.25
2018-06-11T13:31:21.099Z,5.87
2018-06-11T13:33:52.728Z,7.62
2018-06-11T13:36:24.049Z,6.65
2018-06-11T13:38:55.179Z,6.95
2018-06-11T13:41:26.448Z,6.62
2018-06-11T13:43:57.964Z,6.22
2018-06-11T13:46:29.254Z,6.80
2018-06-11T13:49:00.636Z,6.33
2018-06-11T13:51:32.000Z,7.85
2018-06-11T13:54:03.502Z,6.95
2018-06-11T13:56:35.038Z,6.17
2018-06-11T13:59:06.595Z,6.55
2018-06-11T14:01:37.219Z,6.33
2018-06-11T14:04:08.354Z,6.33
2018-06-11T14:06:40.249Z,6.75
2018-06-11T14:09:11.558Z,7.12
2018-06-11T14:11:43.664Z,6.78
2018-06-11T14:14:15.190Z,6.78
2018-06-11T14:16:46.648Z,6.55
2018-06-11T14:19:18.127Z,6.05
2018-06-11T14:21:49.535Z,6.37
2018-06-11T14:24:21.369Z,6.90
2018-06-11T14:26:52.748Z,6.78
2018-06-11T14:29:24.027Z,6.45
2018-06-11T14:31:55.424Z,7.33
2018-06-11T14:34:27.316Z,7.33
2018-06-11T14:36:58.820Z,6.75
2018-06-11T14:39:30.195Z,7.05
2018-06-11T14:42:01.332Z,6.95
2018-06-11T14:44:32.623Z,6.75
2018-06-11T14:47:04.572Z,6.75
2018-06-11T14:49:36.295Z,6.08
2018-06-11T14:52:07.549Z,7.17
2018-06-11T14:54:39.033Z,6.17
2018-06-11T14:57:10.384Z,6.70
2018-06-11T14:59:41.524Z,6.83
2018-06-11T15:02:12.808Z,6.72
2018-06-11T15:04:44.084Z,6.17
2018-06-11T15:07:16.142Z,6.10
2018-06-11T15:09:48.113Z,6.65
2018-06-11T15:12:19.982Z,6.92
2018-06-11T15:14:51.883Z,9.20
2018-06-11T15:17:23.501Z,9.50
2018-06-11T15:19:54.851Z,8.18
2018-06-11T15:22:26.400Z,7.42
2018-06-11T15:24:57.898Z,8.95
2018-06-11T15:27:29.528Z,10.03
2018-06-11T15:30:00.936Z,8.03
2018-06-11T15:32:32.323Z,11.35
2018-06-11T15:35:03.455Z,7.53
2018-06-11T15:37:34.783Z,7.50
2018-06-11T15:40:06.068Z,6.92
2018-06-11T15:42:37.525Z,9.15
2018-06-11T15:45:08.965Z,10.82
2018-06-11T15:47:40.444Z,9.25
2018-06-11T15:50:11.902Z,7.80
2018-06-11T15:52:43.308Z,9.50
2018-06-11T15:55:14.653Z,7.22
2018-06-11T15:57:46.196Z,7.42
2018-06-11T16:00:17.546Z,8.73
2018-06-11T16:02:49.065Z,7.87
2018-06-11T16:05:20.504Z,7.55
2018-06-11T16:07:51.407Z,7.40
2018-06-11T16:10:22.817Z,7.67
2018-06-11T16:12:54.066Z,6.90
2018-06-11T16:15:25.595Z,7.87
2018-06-11T16:17:57.187Z,7.20
2018-06-11T16:20:28.608Z,7.03
2018-06-11T16:23:00.641Z,7.10
2018-06-11T16:25:32.155Z,9.53
2018-06-11T16:28:03.711Z,9.05
2018-06-11T16:30:35.097Z,8.88
2018-06-11T16:33:06.210Z,8.30
2018-06-11T16:35:38.615Z,8.20
2018-06-11T16:38:10.327Z,7.47
2018-06-11T16:40:41.720Z,8.43
2018-06-11T16:43:13.307Z,8.15
2018-06-11T16:45:44.594Z,8.80
2018-06-11T16:48:15.941Z,9.30
2018-06-11T16:50:47.859Z,9.70
2018-06-11T16:53:19.388Z,8.63
2018-06-11T16:55:50.865Z,7.83
2018-06-11T16:58:22.768Z,7.70
2018-06-11T17:00:55.221Z,7.35
2018-06-11T17:03:26.996Z,8.58
2018-06-11T17:05:58.601Z,14.35
2018-06-11T17:08:30.415Z,16.23
2018-06-11T17:11:02.476Z,15.28
2018-06-11T17:13:33.440Z,8.73
2018-06-11T17:16:04.867Z,10.05
2018-06-11T17:18:36.437Z,9.08
2018-06-11T17:21:07.907Z,8.28
2018-06-11T17:23:39.300Z,8.10
2018-06-11T17:26:10.678Z,8.15
2018-06-11T17:28:42.377Z,8.00
2018-06-11T17:31:13.926Z,8.25
2018-06-11T17:33:46.213Z,7.60
2018-06-11T17:36:18.189Z,8.53
2018-06-11T17:38:50.237Z,9.03
2018-06-11T17:41:22.390Z,8.90
2018-06-11T17:43:53.872Z,8.40
2018-06-11T17:46:26.317Z,8.80
2018-06-11T17:48:57.806Z,8.15
2018-06-11T17:51:29.778Z,8.60
2018-06-11T17:54:00.859Z,7.70
2018-06-11T17:56:32.765Z,8.60
2018-06-11T17:59:04.217Z,8.40
2018-06-11T18:01:35.839Z,8.43
2018-06-11T18:04:07.410Z,7.95
2018-06-11T18:06:39.130Z,8.08
2018-06-11T18:09:11.335Z,8.85
2018-06-11T18:11:43.675Z,8.13
2018-06-11T18:14:16.468Z,8.60
2018-06-11T18:16:48.193Z,8.78
2018-06-11T18:19:19.761Z,9.78
2018-06-11T18:21:51.225Z,8.80
2018-06-11T18:24:22.651Z,8.53
2018-06-11T18:26:54.664Z,8.20
2018-06-11T18:29:26.391Z,8.25
2018-06-11T18:31:58.168Z,8.80
2018-06-11T18:34:29.554Z,10.75
2018-06-11T18:37:01.453Z,9.18
2018-06-11T18:39:34.197Z,10.45
2018-06-11T18:42:06.776Z,10.40
2018-06-11T18:44:38.470Z,9.55
2018-06-11T18:47:09.909Z,11.18
2018-06-11T18:49:41.593Z,12.73
2018-06-11T18:52:13.677Z,10.75
2018-06-11T18:54:45.025Z,10.65
2018-06-11T18:57:16.363Z,10.00
2018-06-11T18:59:48.218Z,9.68
2018-06-11T19:02:19.881Z,10.35
2018-06-11T19:04:51.364Z,9.55
2018-06-11T19:07:22.802Z,10.38
2018-06-11T19:09:54.524Z,10.70
2018-06-11T19:12:26.136Z,10.60
2018-06-11T19:14:57.906Z,9.60
2018-06-11T19:17:29.501Z,9.45
2018-06-11T19:20:00.948Z,9.63
2018-06-11T19:22:32.496Z,9.60
2018-06-11T19:25:03.779Z,9.43
2018-06-11T19:27:36.059Z,11.53
2018-06-11T19:30:08.439Z,39.90
2018-06-11T19:32:40.264Z,43.60
2018-06-11T19:35:11.490Z,26.90
2018-06-11T19:37:43.016Z,20.50
2018-06-11T19:40:14.216Z,16.95
2018-06-11T19:42:46.144Z,12.90
2018-06-11T19:45:17.873Z,13.48
2018-06-11T19:47:49.888Z,13.93
2018-06-11T19:50:23.570Z,11.40
2018-06-11T19:52:55.407Z,12.10
2018-06-11T19:55:26.791Z,10.32
2018-06-11T19:57:59.029Z,14.50
2018-06-11T20:00:30.238Z,14.00
2018-06-11T20:03:02.290Z,12.05
2018-06-11T20:05:34.311Z,11.03
2018-06-11T20:08:06.129Z,11.03
2018-06-11T20:10:38.396Z,10.45
2018-06-11T20:13:09.865Z,9.65
2018-06-11T20:15:41.369Z,10.48
2018-06-11T20:18:12.794Z,10.80
2018-06-11T20:20:45.193Z,10.88
2018-06-11T20:23:16.508Z,11.20
2018-06-11T20:25:48.031Z,10.55
2018-06-11T20:28:21.818Z,10.38
2018-06-11T20:30:54.660Z,9.83
2018-06-11T20:33:26.686Z,12.37
2018-06-11T20:35:58.595Z,10.53
2018-06-11T20:38:30.294Z,18.80
2018-06-11T20:41:41.900Z,12.70
2018-06-11T20:44:13.294Z,9.70
2018-06-11T20:46:45.427Z,10.13
2018-06-11T20:49:17.047Z,51.75
2018-06-11T20:51:49.022Z,36.30
2018-06-11T20:54:20.464Z,15.32
2018-06-11T20:56:52.714Z,11.50
2018-06-11T20:59:24.250Z,10.98
2018-06-11T21:01:58.581Z,10.80
2018-06-11T21:04:30.423Z,11.93
2018-06-11T21:07:03.848Z,12.33
2018-06-11T21:09:36.231Z,11.68
2018-06-11T21:12:07.409Z,10.75
2018-06-11T21:14:39.489Z,10.98
2018-06-11T21:17:11.824Z,9.68
2018-06-11T21:19:43.919Z,37.67
2018-06-11T21:22:15.662Z,36.93
2018-06-11T21:24:47.308Z,13.48
2018-06-11T21:27:19.231Z,14.15
2018-06-11T21:29:51.330Z,13.65
2018-06-11T21:32:23.444Z,12.37
2018-06-11T21:34:55.131Z,12.25
2018-06-11T21:37:26.935Z,11.68
2018-06-11T21:39:59.101Z,11.53
2018-06-11T21:42:31.464Z,11.55
2018-06-11T21:45:03.144Z,11.90
2018-06-11T21:47:35.266Z,12.47
2018-06-11T21:50:07.388Z,11.43
2018-06-11T21:52:39.644Z,10.65
2018-06-11T21:55:11.340Z,11.65
2018-06-11T21:57:42.663Z,13.25
2018-06-11T22:00:14.492Z,12.13
2018-06-11T22:02:46.004Z,11.60
2018-06-11T22:05:18.165Z,12.30
2018-06-11T22:07:49.818Z,13.18
2018-06-11T22:10:21.185Z,12.15
2018-06-11T22:12:52.847Z,12.47
2018-06-11T22:15:24.289Z,13.55
2018-06-11T22:17:55.754Z,12.50
2018-06-11T22:20:27.662Z,14.15
2018-06-11T22:22:59.161Z,12.95
2018-06-11T22:25:30.459Z,13.25
2018-06-11T22:28:01.743Z,12.58
2018-06-11T22:30:33.159Z,13.70
2018-06-11T22:33:04.410Z,13.22
2018-06-11T22:35:35.844Z,13.35
2018-06-11T22:38:07.232Z,12.50
2018-06-11T22:40:38.635Z,11.97
2018-06-11T22:43:10.021Z,12.30
2018-06-11T22:45:41.162Z,11.93
2018-06-11T22:48:12.494Z,11.43
2018-06-11T22:50:44.656Z,12.65
2018-06-11T22:53:16.007Z,13.32
2018-06-11T22:55:47.311Z,12.95
2018-06-11T22:58:18.823Z,13.43
2018-06-11T23:00:50.264Z,11.88
2018-06-11T23:03:22.290Z,12.00
2018-06-11T23:05:53.683Z,12.05
2018-06-11T23:08:24.988Z,13.15
2018-06-11T23:10:56.588Z,12.25
2018-06-11T23:13:27.900Z,11.18
2018-06-11T23:15:59.404Z,11.95
2018-06-11T23:18:30.865Z,11.33
2018-06-11T23:21:03.251Z,11.15
2018-06-11T23:23:34.969Z,10.85
2018-06-11T23:26:07.525Z,10.53
2018-06-11T23:28:38.859Z,10.95
2018-06-11T23:31:10.136Z,9.65
2018-06-11T23:33:41.411Z,9.55
2018-06-11T23:36:12.880Z,10.30
2018-06-11T23:38:44.162Z,10.25
2018-06-11T23:41:15.632Z,9.68
2018-06-11T23:43:47.473Z,9.35
2018-06-11T23:46:18.907Z,9.90
2018-06-11T23:48:50.094Z,9.40
2018-06-11T23:51:21.271Z,10.13
2018-06-11T23:53:52.753Z,9.93
2018-06-11T23:56:24.093Z,9.50
2018-06-11T23:58:55.458Z,10.23
